Station Historical Data
Daily Summary for November 8, 2017 Units:  Metric    English   Both
« Previous Day
Next Day »
Daily Weekly Monthly Yearly Custom
  High: Low: Average:
Temperature: 17.4 °C 10.1 °C 13.7 °C
Dew Point: 15.9 °C 9.1 °C 12.1 °C
Humidity: 93% 81% 90%
Wind Speed: 8.2km/h 0km/h 0.8km/h
Wind Gust: 8.2km/h - -
Wind- - WSW
Pressure: 1020.2 hPa 1015.1 hPa -
Precipitation: 1.02 mm    
Historical Graphs
 
 
Tabular Data for November 8, 2017
Time Temperature Dew Point Pressure Wind Wind Speed Wind Gust Humidity Rainfall Rate (Hourly) solar Conditions
00:04 17.4 °C 15.9 °C 1015.8 hPa Calm     91% 0 mm WeatherDisplay:10.37 W/m2 CLR
00:09 17.3 °C 15.8 °C 1015.8 hPa Calm     91% 0 mm WeatherDisplay:10.37 W/m2 CLR
00:14 17.2 °C 15.7 °C 1015.8 hPa Calm     91% 0 mm WeatherDisplay:10.37 W/m2 CLR
00:19 17.1 °C 15.6 °C 1015.8 hPa Calm     91% 0 mm WeatherDisplay:10.37 W/m2 CLR
00:24 17 °C 15.5 °C 1015.8 hPa Calm     91% 0 mm WeatherDisplay:10.37 W/m2 CLR
00:27 17 °C 15.7 °C 1016.1 hPa Calm     92% 0 mm WeatherDisplay:10.37 W/m2 CLR
00:32 17 °C 15.7 °C 1016.1 hPa Calm     92% 0 mm WeatherDisplay:10.37 W/m2 CLR
00:37 16.9 °C 15.6 °C 1016.1 hPa WNW 1.6 km/h   92% 0 mm WeatherDisplay:10.37 W/m2 CLR
00:42 17 °C 15.7 °C 1016.1 hPa Calm     92% 0 mm WeatherDisplay:10.37 W/m2 CLR
00:47 17.1 °C 15.6 °C 1016.1 hPa Calm     91% 0 mm WeatherDisplay:10.37 W/m2 CLR
00:52 17.1 °C 15.6 °C 1016.1 hPa Calm     91% 0 mm WeatherDisplay:10.37 W/m2 CLR
00:57 17.1 °C 15.4 °C 1016.1 hPa WNW 1.9 km/h 1.9 km/h 90% 0 mm WeatherDisplay:10.37 W/m2 CLR
01:02 17.2 °C 15.6 °C 1016.5 hPa West 1.9 km/h 1.9 km/h 90% 0 mm WeatherDisplay:10.37 W/m2 BKN
01:07 17.3 °C 15.4 °C 1016.5 hPa WNW 1.9 km/h 1.9 km/h 89% 0 mm WeatherDisplay:10.37 W/m2 BKN
01:13 17.3 °C 15.4 °C 1016.8 hPa West 3.7 km/h 3.7 km/h 89% 0 mm WeatherDisplay:10.37 W/m2 BKN
01:18 17.3 °C 15.3 °C 1016.8 hPa WSW 3.7 km/h 3.7 km/h 88% 0 mm WeatherDisplay:10.37 W/m2 BKN
01:23 17.3 °C 15.3 °C 1016.8 hPa SW 1.9 km/h 1.9 km/h 88% 0 mm WeatherDisplay:10.37 W/m2 BKN
01:28 17.2 °C 15.2 °C 1016.8 hPa West 7.4 km/h 7.4 km/h 88% 0 mm WeatherDisplay:10.37 W/m2 BKN
01:33 16.9 °C 14.9 °C 1017.2 hPa West 1.9 km/h 1.9 km/h 88% 0 mm WeatherDisplay:10.37 W/m2 OVC
01:38 16.7 °C 14.8 °C 1016.8 hPa Calm     89% 0 mm WeatherDisplay:10.37 W/m2 OVC
01:43 16.4 °C 14.6 °C 1016.8 hPa Calm     89% 0 mm WeatherDisplay:10.37 W/m2 -DZ
01:48 16.3 °C 14.6 °C 1016.5 hPa Calm     90% 0 mm WeatherDisplay:10.37 W/m2 -DZ
01:53 16.1 °C 14.4 °C 1016.8 hPa Calm     90% 0 mm WeatherDisplay:10.37 W/m2 -DZ
01:58 16 °C 14.3 °C 1016.8 hPa Calm     90% 0 mm WeatherDisplay:10.37 W/m2 -DZ
02:03 15.9 °C 14.4 °C 1016.5 hPa WNW 1.9 km/h   91% 0 mm WeatherDisplay:10.37 W/m2 OVC
02:08 15.8 °C 14.4 °C 1016.5 hPa Calm     91% 0 mm WeatherDisplay:10.37 W/m2 OVC
02:13 15.7 °C 14.3 °C 1016.5 hPa Calm     91% 0 mm WeatherDisplay:10.37 W/m2 OVC
02:18 15.7 °C 14.3 °C 1016.5 hPa Calm     91% 0 mm WeatherDisplay:10.37 W/m2 OVC
02:23 15.7 °C 14.3 °C 1016.8 hPa Calm   0.2 km/h 91% 0 mm WeatherDisplay:10.37 W/m2 -DZ
02:28 15.7 °C 14.2 °C 1016.5 hPa Calm     91% 0 mm WeatherDisplay:10.37 W/m2 -DZ
02:34 15.6 °C 14.3 °C 1015.8 hPa Calm     92% 0 mm WeatherDisplay:10.37 W/m2 -DZ
02:39 15.6 °C 14.3 °C 1015.5 hPa Calm     92% 0 mm WeatherDisplay:10.37 W/m2 -DZ
02:44 15.6 °C 14.3 °C 1015.1 hPa Calm     92% 0 mm WeatherDisplay:10.37 W/m2 -DZ
02:49 15.6 °C 14.3 °C 1015.5 hPa Calm     92% 0 mm WeatherDisplay:10.37 W/m2 -DZ
02:54 15.5 °C 14.2 °C 1015.1 hPa Calm     92% 0 mm WeatherDisplay:10.37 W/m2 -DZ
02:59 15.4 °C 14.2 °C 1015.5 hPa Calm     92% 0 mm WeatherDisplay:10.37 W/m2 -DZ
03:04 15.4 °C 14.2 °C 1015.8 hPa Calm     92% 0 mm WeatherDisplay:10.37 W/m2 SCT
03:09 15.4 °C 14.1 °C 1015.8 hPa Calm     92% 0 mm WeatherDisplay:10.37 W/m2 SCT
03:14 15.4 °C 14.1 °C 1015.8 hPa Calm     92% 0 mm WeatherDisplay:10.37 W/m2 SCT
03:19 15.4 °C 14.1 °C 1015.8 hPa Calm     92% 0 mm WeatherDisplay:10.37 W/m2 SCT
03:24 15.3 °C 14.1 °C 1016.1 hPa Calm     92% 0 mm WeatherDisplay:10.37 W/m2 SCT
03:29 15.3 °C 14 °C 1016.1 hPa Calm     92% 0 mm WeatherDisplay:10.37 W/m2 SCT
03:34 15.3 °C 14 °C 1015.8 hPa Calm     92% 0 mm WeatherDisplay:10.37 W/m2 SCT
03:39 15.3 °C 14 °C 1016.1 hPa Calm     92% 0 mm WeatherDisplay:10.37 W/m2 SCT
03:44 15.2 °C 13.9 °C 1016.1 hPa Calm     92% 0 mm WeatherDisplay:10.37 W/m2 SCT
03:49 15.2 °C 13.9 °C 1016.1 hPa Calm     92% 0 mm WeatherDisplay:10.37 W/m2 SCT
03:51 15.2 °C 13.9 °C 1016.1 hPa Calm     92% 0 mm WeatherDisplay:10.37 W/m2 SCT
03:56 15.2 °C 14.1 °C 1016.1 hPa West 1.9 km/h   93% 0 mm WeatherDisplay:10.37 W/m2 SCT
04:06 15.2 °C 13.9 °C 1016.5 hPa Calm     92% 0 mm WeatherDisplay:10.37 W/m2 BKN
04:11 15.2 °C 13.9 °C 1016.5 hPa WNW 1.6 km/h   92% 0 mm WeatherDisplay:10.37 W/m2 BKN
04:16 15.2 °C 13.9 °C 1016.5 hPa Calm     92% 0 mm WeatherDisplay:10.37 W/m2 BKN
04:21 15.2 °C 13.9 °C 1016.8 hPa WNW 1.9 km/h   92% 0 mm WeatherDisplay:10.37 W/m2 BKN
04:27 15.1 °C 13.8 °C 1016.8 hPa Calm     92% 0 mm WeatherDisplay:10.37 W/m2 BKN
04:32 15 °C 13.7 °C 1016.8 hPa WSW 1.9 km/h   92% 0 mm WeatherDisplay:10.37 W/m2 BKN
04:37 15 °C 13.7 °C 1016.8 hPa WNW 1.9 km/h   92% 0 mm WeatherDisplay:10.37 W/m2 BKN
04:42 14.9 °C 13.5 °C 1016.8 hPa SW 8.2 km/h 8.2 km/h 91% 0 mm WeatherDisplay:10.37 W/m2 BKN
04:47 14.8 °C 13.4 °C 1016.8 hPa West 3.7 km/h 3.7 km/h 91% 0 mm WeatherDisplay:10.37 W/m2 BKN
04:52 14.8 °C 13.3 °C 1017.2 hPa Calm     91% 0 mm WeatherDisplay:10.37 W/m2 BKN
04:57 14.7 °C 13.3 °C 1016.8 hPa West 1.9 km/h   91% 0 mm WeatherDisplay:10.37 W/m2 BKN
05:02 14.7 °C 13.2 °C 1016.8 hPa Calm     91% 0 mm WeatherDisplay:10.37 W/m2 OVC
05:07 14.6 °C 13.2 °C 1016.8 hPa SW 1.9 km/h   91% 0 mm WeatherDisplay:10.37 W/m2 OVC
05:12 14.6 °C 13.1 °C 1016.8 hPa Calm     91% 0 mm WeatherDisplay:10.37 W/m2 OVC
05:17 14.6 °C 13.1 °C 1016.8 hPa SW 1.9 km/h   91% 0 mm WeatherDisplay:10.37 W/m2 OVC
05:22 14.4 °C 13 °C 1016.8 hPa Calm     91% 0 mm WeatherDisplay:10.37 W/m2 -RA
05:27 14.4 °C 13 °C 1016.8 hPa West 1.9 km/h   91% 0 mm WeatherDisplay:10.37 W/m2 -RA
05:32 14.4 °C 12.9 °C 1016.8 hPa West 1.9 km/h 1.9 km/h 91% 0 mm WeatherDisplay:10.37 W/m2 -RA
05:37 14.3 °C 13.1 °C 1016.8 hPa Calm     92% 0.25 mm WeatherDisplay:10.37 W/m2 -RA
05:42 14.3 °C 13 °C 1016.8 hPa Calm     92% 0.25 mm WeatherDisplay:10.37 W/m2 -RA
05:47 14.2 °C 12.9 °C 1016.8 hPa Calm   0.2 km/h 92% 0.51 mm WeatherDisplay:10.37 W/m2 -RA
05:52 14.2 °C 12.9 °C 1016.8 hPa Calm     92% 0.51 mm WeatherDisplay:10.37 W/m2 -RA
05:58 14.1 °C 12.8 °C 1016.8 hPa Calm     92% 0.51 mm WeatherDisplay:10.37 W/m2 -RA
06:03 14.1 °C 12.8 °C 1017.2 hPa Calm     92% 0.76 mm WeatherDisplay:10.37 W/m2 -RA
06:08 14.1 °C 13 °C 1017.2 hPa Calm     93% 0.76 mm WeatherDisplay:10.37 W/m2 -RA
06:13 14.1 °C 13 °C 1017.2 hPa Calm     93% 0.76 mm WeatherDisplay:10.37 W/m2 -RA
06:18 14.1 °C 13 °C 1017.5 hPa Calm     93% 0.76 mm WeatherDisplay:10.37 W/m2 -RA
06:23 14.2 °C 13.1 °C 1017.5 hPa Calm     93% 0.76 mm WeatherDisplay:10.37 W/m2 -RA
06:28 14.2 °C 13.1 °C 1017.5 hPa Calm     93% 0.76 mm WeatherDisplay:10.37 W/m2 -RA
06:33 14.1 °C 13 °C 1017.2 hPa Calm     93% 0.76 mm WeatherDisplay:10.37 W/m2 OVC
06:38 14.1 °C 13 °C 1017.5 hPa Calm     93% 0.51 mm WeatherDisplay:10.37 W/m2 OVC
06:43 14.1 °C 12.9 °C 1017.2 hPa Calm     93% 0.51 mm WeatherDisplay:10.37 W/m2 OVC
06:45 14.1 °C 12.9 °C 1017.2 hPa Calm     93% 0 mm WeatherDisplay:10.37 W/m2 OVC
06:50 14.1 °C 12.9 °C 1017.2 hPa Calm     93% 0 mm WeatherDisplay:10.37 W/m2 OVC
06:55 14.1 °C 12.9 °C 1017.2 hPa Calm     93% 0 mm WeatherDisplay:10.37 W/m2 OVC
07:00 14 °C 12.9 °C 1017.2 hPa Calm     93% 0 mm WeatherDisplay:10.37 W/m2 OVC
07:05 14 °C 12.9 °C 1017.2 hPa Calm     93% 0 mm WeatherDisplay:10.37 W/m2 OVC
07:10 14 °C 12.9 °C 1017.2 hPa Calm     93% 0 mm WeatherDisplay:10.37 W/m2 OVC
07:15 14 °C 12.9 °C 1017.2 hPa Calm     93% 0 mm WeatherDisplay:10.37 W/m2 OVC
07:20 14 °C 12.9 °C 1017.2 hPa Calm   1.6 km/h 93% 0 mm WeatherDisplay:10.37 W/m2 OVC
07:25 13.9 °C 12.8 °C 1017.5 hPa Calm   1.6 km/h 93% 0 mm WeatherDisplay:10.37 W/m2 OVC
07:30 13.9 °C 12.8 °C 1017.5 hPa WNW 1.9 km/h   93% 0 mm WeatherDisplay:10.37 W/m2 OVC
07:35 13.9 °C 12.8 °C 1017.8 hPa Calm     93% 0 mm WeatherDisplay:10.37 W/m2 OVC
07:40 13.9 °C 12.8 °C 1017.8 hPa Calm     93% 0 mm WeatherDisplay:10.37 W/m2 OVC
07:45 13.9 °C 12.8 °C 1017.8 hPa Calm     93% 0 mm WeatherDisplay:10.37 W/m2 OVC
07:50 13.9 °C 12.8 °C 1018.2 hPa West 1.6 km/h 1.6 km/h 93% 0 mm WeatherDisplay:10.37 W/m2 OVC
07:55 13.8 °C 12.7 °C 1018.5 hPa SW 7.4 km/h 7.4 km/h 93% 0 mm WeatherDisplay:10.37 W/m2 OVC
08:00 13.8 °C 12.7 °C 1018.5 hPa West 3.7 km/h 3.7 km/h 93% 0 mm WeatherDisplay:10.37 W/m2 OVC
08:05 13.8 °C 12.7 °C 1018.2 hPa Calm     93% 0 mm WeatherDisplay:10.37 W/m2 OVC
08:10 13.7 °C 12.6 °C 1017.8 hPa West 1.9 km/h 1.9 km/h 93% 0 mm WeatherDisplay:10.37 W/m2 OVC
08:15 13.7 °C 12.6 °C 1017.8 hPa Calm     93% 0 mm WeatherDisplay:10.37 W/m2 OVC
08:20 13.8 °C 12.7 °C 1017.8 hPa Calm     93% 0 mm WeatherDisplay:10.37 W/m2 OVC
08:25 13.7 °C 12.6 °C 1017.8 hPa Calm     93% 0 mm WeatherDisplay:10.37 W/m2 OVC
08:30 13.6 °C 12.4 °C 1017.8 hPa Calm     93% 0 mm WeatherDisplay:10.37 W/m2 OVC
08:35 13.6 °C 12.4 °C 1017.8 hPa Calm     93% 0 mm WeatherDisplay:10.37 W/m2 OVC
08:40 13.6 °C 12.4 °C 1018.2 hPa Calm     93% 0 mm WeatherDisplay:10.37 W/m2 OVC
08:46 13.7 °C 12.6 °C 1018.2 hPa Calm     93% 0 mm WeatherDisplay:10.37 W/m2 OVC
08:51 13.7 °C 12.6 °C 1018.2 hPa Calm     93% 0 mm WeatherDisplay:10.37 W/m2 OVC
08:56 13.8 °C 12.7 °C 1017.8 hPa Calm     93% 0 mm WeatherDisplay:10.37 W/m2 OVC
09:01 13.7 °C 12.4 °C 1018.2 hPa Calm     92% 0 mm WeatherDisplay:10.37 W/m2 OVC
09:06 13.6 °C 12.3 °C 1018.2 hPa Calm     92% 0 mm WeatherDisplay:10.37 W/m2 OVC
09:11 13.6 °C 12.3 °C 1018.5 hPa Calm     92% 0 mm WeatherDisplay:10.37 W/m2 OVC
09:12 13.6 °C 12.3 °C 1018.5 hPa WSW 1.9 km/h 1.9 km/h 92% 0 mm WeatherDisplay:10.37 W/m2 OVC
09:17 13.6 °C 12.3 °C 1018.5 hPa Calm     92% 0 mm WeatherDisplay:10.37 W/m2 OVC
09:22 13.6 °C 12.3 °C 1018.5 hPa East 1.9 km/h 1.9 km/h 92% 0 mm WeatherDisplay:10.37 W/m2 OVC
09:27 13.7 °C 12.4 °C 1018.5 hPa SE 1.9 km/h   92% 0 mm WeatherDisplay:10.37 W/m2 OVC
09:32 13.8 °C 12.6 °C 1018.5 hPa Calm     92% 0 mm WeatherDisplay:10.37 W/m2 OVC
09:37 13.9 °C 12.6 °C 1018.2 hPa South 1.9 km/h 1.9 km/h 92% 0 mm WeatherDisplay:10.37 W/m2 OVC
09:42 13.8 °C 12.3 °C 1018.5 hPa South 1.9 km/h   91% 0 mm WeatherDisplay:10.37 W/m2 OVC
09:48 13.8 °C 12.3 °C 1018.5 hPa Calm   0.2 km/h 91% 0 mm WeatherDisplay:10.37 W/m2 OVC
09:53 13.8 °C 12.3 °C 1018.2 hPa ESE 1.9 km/h 1.9 km/h 91% 0 mm WeatherDisplay:10.37 W/m2 OVC
09:58 13.8 °C 12.4 °C 1018.2 hPa Calm     91% 0 mm WeatherDisplay:10.37 W/m2 OVC
10:03 13.8 °C 12.4 °C 1018.2 hPa South 1.9 km/h   91% 0 mm WeatherDisplay:10.37 W/m2 OVC
10:08 13.8 °C 12.2 °C 1018.2 hPa Calm     90% 0 mm WeatherDisplay:10.37 W/m2 OVC
10:13 13.8 °C 12.2 °C 1018.5 hPa Calm     90% 0 mm WeatherDisplay:10.37 W/m2 OVC
10:18 13.8 °C 12.4 °C 1018.5 hPa East 1.9 km/h 1.9 km/h 91% 0 mm WeatherDisplay:10.37 W/m2 OVC
10:23 13.8 °C 12.2 °C 1018.5 hPa West 1.9 km/h   90% 0 mm WeatherDisplay:10.37 W/m2 OVC
10:28 13.8 °C 12.2 °C 1018.8 hPa Calm     90% 0 mm WeatherDisplay:10.37 W/m2 OVC
10:33 13.8 °C 12.2 °C 1018.8 hPa Calm     90% 0 mm WeatherDisplay:10.37 W/m2 OVC
10:38 13.9 °C 12.3 °C 1018.8 hPa Calm     90% 0 mm WeatherDisplay:10.37 W/m2 OVC
10:39 13.9 °C 12.3 °C 1018.8 hPa Calm     90% 0 mm WeatherDisplay:10.37 W/m2 OVC
10:44 14 °C 12.4 °C 1018.8 hPa NW 3.7 km/h 3.7 km/h 90% 0 mm WeatherDisplay:10.37 W/m2 OVC
10:49 14 °C 12.2 °C 1018.8 hPa Calm     89% 0 mm WeatherDisplay:10.37 W/m2 OVC
10:54 14.1 °C 12.3 °C 1018.5 hPa Calm     89% 0 mm WeatherDisplay:10.37 W/m2 OVC
10:59 14.1 °C 12.3 °C 1018.8 hPa Calm     89% 0 mm WeatherDisplay:10.37 W/m2 OVC
11:04 14.2 °C 12.2 °C 1018.5 hPa West 1.9 km/h   88% 0 mm WeatherDisplay:10.37 W/m2 OVC
11:09 14.2 °C 12.2 °C 1018.8 hPa Calm     88% 0 mm WeatherDisplay:10.37 W/m2 OVC
11:14 14.2 °C 12.4 °C 1018.8 hPa Calm     89% 0 mm WeatherDisplay:10.37 W/m2 OVC
11:19 14.3 °C 12.2 °C 1018.8 hPa Calm     87% 0 mm WeatherDisplay:10.37 W/m2 OVC
11:24 14.3 °C 12.2 °C 1018.8 hPa Calm     87% 0 mm WeatherDisplay:10.37 W/m2 OVC
11:29 14.3 °C 12.2 °C 1018.5 hPa SW 3.7 km/h   87% 0 mm WeatherDisplay:10.37 W/m2 OVC
11:34 14.3 °C 12.2 °C 1018.8 hPa SW 1.9 km/h   87% 0 mm WeatherDisplay:10.37 W/m2 OVC
11:40 14.3 °C 12.2 °C 1018.8 hPa Calm     87% 0 mm WeatherDisplay:10.37 W/m2 OVC
11:45 14.2 °C 12.1 °C 1018.5 hPa SW 1.9 km/h 1.9 km/h 87% 0 mm WeatherDisplay:10.37 W/m2 OVC
11:50 14.2 °C 12.1 °C 1018.2 hPa Calm   1.6 km/h 87% 0 mm WeatherDisplay:10.37 W/m2 OVC
11:55 14.3 °C 12.2 °C 1018.2 hPa Calm   1.6 km/h 87% 0 mm WeatherDisplay:10.37 W/m2 OVC
12:00 14.3 °C 11.9 °C 1018.5 hPa Calm   3.2 km/h 86% 0 mm WeatherDisplay:10.37 W/m2 OVC
12:01 14.2 °C 11.9 °C 1018.2 hPa West 3.7 km/h 3.7 km/h 86% 0 mm WeatherDisplay:10.37 W/m2 OVC
12:12 14.2 °C 12.1 °C 1018.2 hPa Calm     87% 0 mm WeatherDisplay:10.37 W/m2 OVC
12:17 14.2 °C 12.1 °C 1018.2 hPa Calm     87% 0 mm WeatherDisplay:10.37 W/m2 OVC
12:22 14.1 °C 11.8 °C 1018.2 hPa NE 1.9 km/h 1.9 km/h 86% 0 mm WeatherDisplay:10.37 W/m2 OVC
12:27 14.1 °C 12 °C 1018.2 hPa NE 1.9 km/h   87% 0 mm WeatherDisplay:10.37 W/m2 OVC
12:32 14.2 °C 12.1 °C 1017.8 hPa SSE 1.9 km/h 1.9 km/h 87% 0 mm WeatherDisplay:10.37 W/m2 OVC
12:37 14.2 °C 11.7 °C 1017.8 hPa Calm     85% 0 mm WeatherDisplay:10.37 W/m2 OVC
12:42 14.2 °C 11.7 °C 1018.2 hPa Calm     85% 0 mm WeatherDisplay:10.37 W/m2 -DZ
12:47 14.2 °C 11.8 °C 1017.8 hPa Calm     86% 0 mm WeatherDisplay:10.37 W/m2 -DZ
12:52 14.2 °C 11.9 °C 1017.8 hPa Calm     86% 0 mm WeatherDisplay:10.37 W/m2 OVC
12:57 14.2 °C 11.7 °C 1017.8 hPa Calm     85% 0 mm WeatherDisplay:10.37 W/m2 OVC
13:02 14.3 °C 11.8 °C 1017.8 hPa Calm     85% 0 mm WeatherDisplay:10.37 W/m2 OVC
13:07 14.3 °C 11.8 °C 1017.8 hPa Calm     85% 0 mm WeatherDisplay:10.37 W/m2 OVC
13:12 14.4 °C 11.9 °C 1017.8 hPa SSE 1.9 km/h 2.3 km/h 85% 0 mm WeatherDisplay:10.37 W/m2 OVC
13:18 14.3 °C 11.8 °C 1017.8 hPa West 1.9 km/h   85% 0 mm WeatherDisplay:10.37 W/m2 OVC
13:19 14.3 °C 11.8 °C 1017.5 hPa SSW 3.7 km/h 3.7 km/h 85% 0 mm WeatherDisplay:10.37 W/m2 OVC
13:24 14.3 °C 11.7 °C 1017.5 hPa Calm     84% 0 mm WeatherDisplay:10.37 W/m2 OVC
13:29 14.3 °C 12 °C 1017.5 hPa Calm     86% 0 mm WeatherDisplay:10.37 W/m2 OVC
13:34 14.4 °C 11.9 °C 1017.5 hPa Calm     85% 0 mm WeatherDisplay:10.37 W/m2 OVC
13:39 14.5 °C 11.8 °C 1017.5 hPa North 1.6 km/h   84% 0 mm WeatherDisplay:10.37 W/m2 OVC
13:44 14.6 °C 11.9 °C 1017.2 hPa WSW 1.9 km/h   84% 0 mm WeatherDisplay:10.37 W/m2 BKN
13:49 14.7 °C 11.9 °C 1017.2 hPa NW 1.9 km/h 1.9 km/h 83% 0 mm WeatherDisplay:10.37 W/m2 BKN
13:54 14.8 °C 11.9 °C 1017.2 hPa Calm     83% 0 mm WeatherDisplay:10.37 W/m2 BKN
13:59 14.8 °C 11.7 °C 1017.2 hPa WNW 1.9 km/h   82% 0 mm WeatherDisplay:10.37 W/m2 BKN
14:01 14.8 °C 11.6 °C 1017.2 hPa SSW 3.7 km/h 3.7 km/h 81% 0 mm WeatherDisplay:10.37 W/m2 OVC
14:07 14.8 °C 11.9 °C 1017.2 hPa SSW 1.6 km/h 1.6 km/h 83% 0 mm WeatherDisplay:10.37 W/m2 OVC
14:12 14.8 °C 11.8 °C 1016.8 hPa Calm     82% 0 mm WeatherDisplay:10.37 W/m2 OVC
14:17 14.9 °C 12 °C 1016.8 hPa Calm     83% 0 mm WeatherDisplay:10.37 W/m2 OVC
14:22 15 °C 12.1 °C 1016.8 hPa SW 1.9 km/h   83% 0 mm WeatherDisplay:10.37 W/m2 OVC
14:27 15 °C 11.9 °C 1017.2 hPa SE 1.9 km/h   82% 0 mm WeatherDisplay:10.37 W/m2 OVC
14:32 14.9 °C 11.9 °C 1017.2 hPa Calm     82% 0 mm WeatherDisplay:10.37 W/m2 OVC
14:37 14.9 °C 12 °C 1017.2 hPa Calm     83% 0 mm WeatherDisplay:10.37 W/m2 OVC
14:42 14.9 °C 12 °C 1017.2 hPa Calm     83% 0 mm WeatherDisplay:10.37 W/m2 OVC
14:47 14.9 °C 12 °C 1017.2 hPa Calm     83% 0 mm WeatherDisplay:10.37 W/m2 OVC
14:52 14.8 °C 11.7 °C 1017.2 hPa Calm     82% 0 mm WeatherDisplay:10.37 W/m2 OVC
14:57 14.7 °C 11.9 °C 1016.8 hPa Calm     83% 0 mm WeatherDisplay:10.37 W/m2 OVC
15:02 14.7 °C 11.9 °C 1017.2 hPa ESE 1.9 km/h 1.9 km/h 83% 0 mm WeatherDisplay:10.37 W/m2 OVC
15:07 14.7 °C 11.9 °C 1016.8 hPa East 1.9 km/h 1.9 km/h 83% 0 mm WeatherDisplay:10.37 W/m2 OVC
15:12 14.7 °C 11.9 °C 1017.2 hPa ESE 1.6 km/h   83% 0 mm WeatherDisplay:10.37 W/m2 OVC
15:17 14.7 °C 11.9 °C 1017.2 hPa SSW 3.7 km/h 3.7 km/h 83% 0 mm WeatherDisplay:10.37 W/m2 OVC
15:22 14.7 °C 11.8 °C 1017.5 hPa Calm     83% 0 mm WeatherDisplay:10.37 W/m2 OVC
15:27 14.8 °C 12.1 °C 1017.5 hPa Calm     84% 0 mm WeatherDisplay:10.37 W/m2 OVC
15:32 14.7 °C 12.1 °C 1017.5 hPa Calm     84% 0 mm WeatherDisplay:10.37 W/m2 OVC
15:37 14.7 °C 11.9 °C 1017.5 hPa Calm     83% 0 mm WeatherDisplay:10.37 W/m2 OVC
15:42 14.7 °C 12 °C 1017.8 hPa ESE 1.6 km/h 1.6 km/h 84% 0 mm WeatherDisplay:10.37 W/m2 OVC
15:47 14.7 °C 12 °C 1018.5 hPa Calm     84% 0 mm WeatherDisplay:10.37 W/m2 OVC
15:52 14.6 °C 11.8 °C 1018.5 hPa SW 1.9 km/h   83% 0 mm WeatherDisplay:10.37 W/m2 OVC
15:58 14.6 °C 11.9 °C 1018.5 hPa West 1.9 km/h   84% 0 mm WeatherDisplay:10.37 W/m2 OVC
16:03 14.5 °C 11.8 °C 1018.5 hPa SSW 1.9 km/h 1.9 km/h 84% 0 mm WeatherDisplay:10.37 W/m2 -DZ
16:08 14.4 °C 11.9 °C 1018.5 hPa Calm     85% 0 mm WeatherDisplay:10.37 W/m2 -DZ
16:13 14.3 °C 11.6 °C 1018.5 hPa Calm     84% 0 mm WeatherDisplay:10.37 W/m2 -DZ
16:18 14.2 °C 11.7 °C 1018.8 hPa WSW 1.9 km/h 1.9 km/h 85% 0 mm WeatherDisplay:10.37 W/m2 -DZ
16:23 14.1 °C 11.6 °C 1018.8 hPa Calm     85% 0 mm WeatherDisplay:10.37 W/m2 -DZ
16:28 14.1 °C 11.7 °C 1019.2 hPa Calm     86% 0 mm WeatherDisplay:10.37 W/m2 -DZ
16:33 13.9 °C 11.4 °C 1019.2 hPa Calm     85% 0 mm WeatherDisplay:10.37 W/m2 -DZ
16:38 13.9 °C 11.7 °C 1019.2 hPa Calm     86% 0 mm WeatherDisplay:10.37 W/m2 -DZ
16:43 13.9 °C 11.6 °C 1019.2 hPa Calm     86% 0 mm WeatherDisplay:10.37 W/m2 -DZ
16:48 13.8 °C 11.6 °C 1019.2 hPa WNW 1.9 km/h   86% 0 mm WeatherDisplay:10.37 W/m2 -DZ
16:53 13.8 °C 11.5 °C 1019.2 hPa Calm     86% 0 mm WeatherDisplay:10.37 W/m2 -DZ
16:58 13.7 °C 11.4 °C 1019.2 hPa Calm     86% 0 mm WeatherDisplay:10.37 W/m2 -DZ
17:03 13.6 °C 11.3 °C 1019.2 hPa Calm     86% 0 mm WeatherDisplay:10.37 W/m2 -DZ
17:08 13.6 °C 11.3 °C 1018.8 hPa Calm     86% 0 mm WeatherDisplay:10.37 W/m2 -DZ
17:13 13.6 °C 11.3 °C 1018.8 hPa Calm     86% 0 mm WeatherDisplay:10.37 W/m2 -DZ
17:18 13.5 °C 11.2 °C 1018.8 hPa Calm     86% 0 mm WeatherDisplay:10.37 W/m2 -DZ
17:23 13.4 °C 11.3 °C 1018.8 hPa WNW 1.6 km/h 1.6 km/h 87% 0 mm WeatherDisplay:10.37 W/m2 -DZ
17:29 13.4 °C 11.3 °C 1018.5 hPa Calm     87% 0 mm WeatherDisplay:10.37 W/m2 -DZ
17:33 13.3 °C 11.2 °C 1018.2 hPa Calm     87% 0 mm WeatherDisplay:10.37 W/m2 -DZ
17:39 13.2 °C 11.1 °C 1018.5 hPa Calm     87% 0 mm WeatherDisplay:10.37 W/m2 -DZ
17:44 13.2 °C 11.1 °C 1018.5 hPa Calm     87% 0 mm WeatherDisplay:10.37 W/m2 -DZ
17:49 13.1 °C 11 °C 1018.5 hPa Calm     87% 0 mm WeatherDisplay:10.37 W/m2 -DZ
17:54 13.1 °C 11.1 °C 1018.5 hPa Calm     88% 0 mm WeatherDisplay:10.37 W/m2 -DZ
17:59 12.9 °C 11 °C 1018.8 hPa Calm     88% 0 mm WeatherDisplay:10.37 W/m2 -DZ
18:04 12.9 °C 11 °C 1018.8 hPa Calm     88% 0 mm WeatherDisplay:10.37 W/m2 -DZ
18:09 12.9 °C 11.1 °C 1019.2 hPa Calm     89% 0 mm WeatherDisplay:10.37 W/m2 -DZ
18:14 12.8 °C 11.1 °C 1019.2 hPa Calm     89% 0 mm WeatherDisplay:10.37 W/m2 -DZ
18:19 12.8 °C 11 °C 1019.2 hPa Calm     89% 0 mm WeatherDisplay:10.37 W/m2 -DZ
18:24 12.7 °C 10.9 °C 1019.5 hPa Calm     89% 0 mm WeatherDisplay:10.37 W/m2 -DZ
18:29 12.7 °C 10.9 °C 1019.5 hPa Calm     89% 0 mm WeatherDisplay:10.37 W/m2 -DZ
18:34 12.7 °C 11.1 °C 1019.5 hPa Calm     90% 0 mm WeatherDisplay:10.37 W/m2 -DZ
18:39 12.6 °C 11 °C 1019.5 hPa Calm     90% 0.25 mm WeatherDisplay:10.37 W/m2 -DZ
18:44 12.6 °C 11.2 °C 1018.5 hPa Calm     91% 0.25 mm WeatherDisplay:10.37 W/m2 -DZ
18:49 12.5 °C 11.1 °C 1017.8 hPa Calm     91% 0.25 mm WeatherDisplay:10.37 W/m2 -DZ
18:54 12.4 °C 10.9 °C 1018.2 hPa Calm     91% 0.25 mm WeatherDisplay:10.37 W/m2 -DZ
18:59 12.3 °C 10.9 °C 1018.5 hPa Calm     91% 0.25 mm WeatherDisplay:10.37 W/m2 -DZ
19:04 12.3 °C 10.8 °C 1018.5 hPa Calm     91% 0.25 mm WeatherDisplay:10.37 W/m2 -RA
19:09 12.2 °C 10.9 °C 1019.2 hPa West 1.9 km/h 1.9 km/h 92% 0.25 mm WeatherDisplay:10.37 W/m2 -RA
19:14 12 °C 10.6 °C 1019.2 hPa Calm     91% 0.25 mm WeatherDisplay:10.37 W/m2 -RA
19:19 11.9 °C 10.7 °C 1019.2 hPa WNW 1.9 km/h 1.9 km/h 92% 0.25 mm WeatherDisplay:10.37 W/m2 -RA
19:24 11.7 °C 10.2 °C 1019.2 hPa WNW 3.7 km/h 3.7 km/h 91% 0.25 mm WeatherDisplay:10.37 W/m2 -RA
19:29 11.6 °C 10.3 °C 1018.8 hPa West 1.9 km/h 1.9 km/h 92% 0.25 mm WeatherDisplay:10.37 W/m2 -RA
19:34 11.6 °C 10.3 °C 1018.8 hPa Calm     92% 0.25 mm WeatherDisplay:10.37 W/m2 -DZ
19:40 11.4 °C 10.2 °C 1018.8 hPa Calm   1.6 km/h 92% 0 mm WeatherDisplay:10.37 W/m2 -DZ
19:45 11.3 °C 10.1 °C 1018.8 hPa Calm   1.6 km/h 92% 0 mm WeatherDisplay:10.37 W/m2 -DZ
19:50 11.2 °C 9.9 °C 1019.2 hPa Calm   1.6 km/h 92% 0 mm WeatherDisplay:10.37 W/m2 -DZ
19:55 11.2 °C 9.9 °C 1019.2 hPa Calm   0.2 km/h 92% 0 mm WeatherDisplay:10.37 W/m2 -DZ
20:00 11.1 °C 9.8 °C 1019.2 hPa Calm   4.8 km/h 92% 0 mm WeatherDisplay:10.37 W/m2 -DZ
20:05 11 °C 9.7 °C 1019.2 hPa Calm   1.6 km/h 92% 0 mm WeatherDisplay:10.37 W/m2 -DZ
20:10 11 °C 9.7 °C 1019.2 hPa Calm   1.6 km/h 92% 0 mm WeatherDisplay:10.37 W/m2 -DZ
20:15 10.9 °C 9.7 °C 1019.2 hPa Calm   1.6 km/h 92% 0 mm WeatherDisplay:10.37 W/m2 OVC
20:20 10.9 °C 9.7 °C 1019.5 hPa Calm   1.6 km/h 92% 0 mm WeatherDisplay:10.37 W/m2 OVC
20:25 10.9 °C 9.7 °C 1019.5 hPa Calm   1.6 km/h 92% 0 mm WeatherDisplay:10.37 W/m2 OVC
20:30 10.9 °C 9.7 °C 1019.5 hPa Calm   1.6 km/h 92% 0 mm WeatherDisplay:10.37 W/m2 OVC
20:35 10.8 °C 9.6 °C 1019.5 hPa Calm   1.6 km/h 92% 0 mm WeatherDisplay:10.37 W/m2 OVC
20:37 10.8 °C 9.6 °C 1019.5 hPa WNW 1.9 km/h 1.9 km/h 92% 0 mm WeatherDisplay:10.37 W/m2 OVC
20:43 10.7 °C 9.5 °C 1019.2 hPa Calm     92% 0 mm WeatherDisplay:10.37 W/m2 OVC
20:48 10.8 °C 9.6 °C 1019.2 hPa Calm     92% 0 mm WeatherDisplay:10.37 W/m2 OVC
20:53 10.8 °C 9.6 °C 1019.2 hPa Calm     92% 0 mm WeatherDisplay:10.37 W/m2 OVC
20:58 10.7 °C 9.4 °C 1019.2 hPa West 3.7 km/h 3.7 km/h 92% 0 mm WeatherDisplay:10.37 W/m2 OVC
21:01 10.7 °C 9.5 °C 1019.2 hPa Calm     92% 0 mm WeatherDisplay:10.37 W/m2 OVC
21:06 10.7 °C 9.4 °C 1019.2 hPa West 1.9 km/h 1.9 km/h 92% 0 mm WeatherDisplay:10.37 W/m2 OVC
21:11 10.7 °C 9.6 °C 1019.5 hPa Calm     93% 0 mm WeatherDisplay:10.37 W/m2 OVC
21:16 10.6 °C 9.5 °C 1019.5 hPa West 1.6 km/h   93% 0 mm WeatherDisplay:10.37 W/m2 OVC
21:21 10.6 °C 9.5 °C 1019.5 hPa Calm     93% 0 mm WeatherDisplay:10.37 W/m2 OVC
21:26 10.7 °C 9.6 °C 1019.5 hPa Calm     93% 0 mm WeatherDisplay:10.37 W/m2 OVC
21:31 10.6 °C 9.5 °C 1019.5 hPa Calm     93% 0 mm WeatherDisplay:10.37 W/m2 OVC
21:37 10.6 °C 9.5 °C 1019.9 hPa Calm     93% 0 mm WeatherDisplay:10.37 W/m2 OVC
21:42 10.6 °C 9.5 °C 1019.9 hPa WNW 1.9 km/h 1.9 km/h 93% 0 mm WeatherDisplay:10.37 W/m2 OVC
21:47 10.6 °C 9.4 °C 1019.9 hPa WNW 1.9 km/h 1.9 km/h 93% 0 mm WeatherDisplay:10.37 W/m2 OVC
21:52 10.6 °C 9.4 °C 1019.9 hPa Calm     93% 0 mm WeatherDisplay:10.37 W/m2 OVC
21:57 10.5 °C 9.4 °C 1019.9 hPa West 1.9 km/h   93% 0 mm WeatherDisplay:10.37 W/m2 OVC
22:02 10.6 °C 9.4 °C 1019.9 hPa West 1.9 km/h   93% 0 mm WeatherDisplay:10.37 W/m2 OVC
22:07 10.5 °C 9.4 °C 1019.9 hPa West 1.9 km/h 1.9 km/h 93% 0 mm WeatherDisplay:10.37 W/m2 OVC
22:12 10.5 °C 9.4 °C 1019.5 hPa West 3.7 km/h 3.7 km/h 93% 0 mm WeatherDisplay:10.37 W/m2 OVC
22:17 10.5 °C 9.4 °C 1019.9 hPa West 1.9 km/h   93% 0 mm WeatherDisplay:10.37 W/m2 OVC
22:22 10.5 °C 9.4 °C 1019.9 hPa Calm     93% 0 mm WeatherDisplay:10.37 W/m2 OVC
22:23 10.5 °C 9.4 °C 1019.9 hPa WNW 1.9 km/h 1.9 km/h 93% 0 mm WeatherDisplay:10.37 W/m2 OVC
22:28 10.4 °C 9.3 °C 1019.9 hPa WNW 1.9 km/h   93% 0 mm WeatherDisplay:10.37 W/m2 OVC
22:33 10.3 °C 9.3 °C 1019.9 hPa Calm     93% 0 mm WeatherDisplay:10.37 W/m2 OVC
22:38 10.3 °C 9.3 °C 1019.9 hPa West 1.9 km/h 1.9 km/h 93% 0 mm WeatherDisplay:10.37 W/m2 OVC
22:41 10.3 °C 9.3 °C 1019.9 hPa WNW 1.6 km/h 1.6 km/h 93% 0 mm WeatherDisplay:10.37 W/m2 OVC
22:46 10.3 °C 9.3 °C 1019.9 hPa Calm     93% 0 mm WeatherDisplay:10.37 W/m2 OVC
22:52 10.3 °C 9.2 °C 1019.9 hPa Calm     93% 0 mm WeatherDisplay:10.37 W/m2 OVC
22:57 10.3 °C 9.2 °C 1019.9 hPa Calm     93% 0 mm WeatherDisplay:10.37 W/m2 OVC
23:02 10.3 °C 9.2 °C 1019.9 hPa Calm     93% 0 mm WeatherDisplay:10.37 W/m2 OVC
23:07 10.3 °C 9.2 °C 1019.9 hPa West 1.6 km/h   93% 0 mm WeatherDisplay:10.37 W/m2 OVC
23:12 10.2 °C 9.2 °C 1019.9 hPa West 1.6 km/h 1.6 km/h 93% 0 mm WeatherDisplay:10.37 W/m2 OVC
23:17 10.2 °C 9.2 °C 1019.9 hPa WNW 1.9 km/h 1.9 km/h 93% 0 mm WeatherDisplay:10.37 W/m2 OVC
23:22 10.2 °C 9.1 °C 1019.9 hPa Calm     93% 0 mm WeatherDisplay:10.37 W/m2 OVC
23:27 10.2 °C 9.1 °C 1019.9 hPa WNW 1.9 km/h 1.9 km/h 93% 0 mm WeatherDisplay:10.37 W/m2 OVC
23:32 10.1 °C 9.1 °C 1019.5 hPa West 1.9 km/h 1.9 km/h 93% 0 mm WeatherDisplay:10.37 W/m2 OVC
23:37 10.1 °C 9.1 °C 1019.9 hPa Calm     93% 0 mm WeatherDisplay:10.37 W/m2 OVC
23:42 10.1 °C 9.1 °C 1019.9 hPa Calm     93% 0 mm WeatherDisplay:10.37 W/m2 OVC
23:47 10.2 °C 9.1 °C 1020.2 hPa Calm     93% 0 mm WeatherDisplay:10.37 W/m2 OVC
23:52 10.1 °C 9.1 °C 1019.9 hPa Calm     93% 0 mm WeatherDisplay:10.37 W/m2 OVC
23:57 10.1 °C 9.1 °C 1020.2 hPa WNW 1.9 km/h 1.9 km/h 93% 0 mm WeatherDisplay:10.37 W/m2 OVC
Piedmont Bend
Compliments of Weather Underground - 4 mb